createdAt,value
2018-06-30T00:00:57.783Z,6.80
2018-06-30T00:03:45.866Z,7.17
2018-06-30T00:06:26.194Z,7.47
2018-06-30T00:08:54.514Z,6.90
2018-06-30T00:11:24.714Z,7.43
2018-06-30T00:13:52.085Z,6.43
2018-06-30T00:16:21.831Z,7.40
2018-06-30T00:18:48.746Z,6.70
2018-06-30T00:21:16.359Z,6.80
2018-06-30T00:23:43.323Z,6.93
2018-06-30T00:26:10.314Z,6.23
2018-06-30T00:28:38.538Z,6.77
2018-06-30T00:31:06.482Z,6.30
2018-06-30T00:33:36.542Z,6.10
2018-06-30T00:36:06.502Z,6.87
2018-06-30T00:38:44.562Z,5.60
2018-06-30T00:41:12.339Z,6.47
2018-06-30T00:43:39.242Z,5.93
2018-06-30T00:46:08.873Z,5.70
2018-06-30T00:48:37.411Z,6.67
2018-06-30T00:51:05.851Z,6.10
2018-06-30T00:53:34.349Z,6.80
2018-06-30T00:56:01.850Z,6.53
2018-06-30T00:58:44.461Z,6.00
2018-06-30T01:01:19.082Z,5.83
2018-06-30T01:03:48.056Z,5.83
2018-06-30T01:06:16.874Z,6.27
2018-06-30T01:08:44.896Z,6.90
2018-06-30T01:11:14.450Z,5.87
2018-06-30T01:13:46.054Z,6.53
2018-06-30T01:16:14.861Z,5.50
2018-06-30T01:18:47.963Z,5.77
2018-06-30T01:21:14.903Z,5.12
2018-06-30T01:23:42.822Z,4.80
2018-06-30T01:26:12.826Z,5.13
2018-06-30T01:28:44.390Z,4.90
2018-06-30T01:31:12.886Z,5.10
2018-06-30T01:33:39.810Z,4.60
2018-06-30T01:36:06.797Z,4.50
2018-06-30T01:38:33.738Z,4.60
2018-06-30T01:41:00.762Z,5.47
2018-06-30T01:43:27.647Z,3.90
2018-06-30T01:45:54.661Z,4.37
2018-06-30T01:48:23.437Z,4.20
2018-06-30T01:50:55.815Z,3.97
2018-06-30T01:53:22.742Z,3.90
2018-06-30T01:55:50.338Z,3.50
2018-06-30T01:58:22.307Z,3.47
2018-06-30T02:00:55.264Z,3.43
2018-06-30T02:03:22.130Z,3.97
2018-06-30T02:05:49.031Z,3.13
2018-06-30T02:08:21.298Z,3.33
2018-06-30T02:10:48.887Z,4.53
2018-06-30T02:13:17.390Z,3.10
2018-06-30T02:15:48.838Z,3.40
2018-06-30T02:18:18.761Z,3.57
2018-06-30T02:20:56.110Z,3.40
2018-06-30T02:23:23.027Z,3.37
2018-06-30T02:25:50.854Z,3.47
2018-06-30T02:28:18.370Z,3.90
2018-06-30T02:30:45.330Z,3.57
2018-06-30T02:33:13.335Z,3.00
2018-06-30T02:35:44.870Z,3.17
2018-06-30T02:38:11.865Z,3.50
2018-06-30T02:40:38.823Z,3.23
2018-06-30T02:43:10.906Z,3.77
2018-06-30T02:45:40.422Z,3.27
2018-06-30T02:48:12.468Z,3.10
2018-06-30T02:50:39.933Z,3.13
2018-06-30T02:53:08.481Z,4.20
2018-06-30T02:55:35.386Z,3.20
2018-06-30T02:58:02.920Z,3.37
2018-06-30T03:00:31.913Z,3.07
2018-06-30T03:03:02.411Z,3.40
2018-06-30T03:05:32.375Z,2.80
2018-06-30T03:08:01.340Z,3.20
2018-06-30T03:10:28.255Z,3.00
2018-06-30T03:12:56.175Z,3.50
2018-06-30T03:15:32.667Z,3.37
2018-06-30T03:18:09.247Z,2.70
2018-06-30T03:20:37.929Z,2.93
2018-06-30T03:23:07.954Z,2.80
2018-06-30T03:25:35.958Z,2.63
2018-06-30T03:28:10.482Z,2.90
2018-06-30T03:30:39.159Z,2.90
2018-06-30T03:33:11.099Z,2.80
2018-06-30T03:35:51.737Z,2.60
2018-06-30T03:38:24.963Z,3.00
2018-06-30T03:40:53.044Z,2.70
2018-06-30T03:43:20.902Z,2.70
2018-06-30T03:45:49.410Z,2.93
2018-06-30T03:48:17.391Z,2.47
2018-06-30T03:50:44.338Z,2.70
2018-06-30T03:53:12.396Z,2.70
2018-06-30T03:55:39.426Z,2.30
2018-06-30T03:58:06.334Z,3.50
2018-06-30T04:00:34.970Z,2.83
2018-06-30T04:03:02.907Z,2.70
2018-06-30T04:05:30.506Z,2.50
2018-06-30T04:07:57.479Z,2.60
2018-06-30T04:10:31.263Z,2.50
2018-06-30T04:13:02.918Z,2.13
2018-06-30T04:15:31.510Z,2.90
2018-06-30T04:18:08.515Z,2.33
2018-06-30T04:20:37.002Z,2.50
2018-06-30T04:23:15.086Z,2.17
2018-06-30T04:25:45.878Z,2.47
2018-06-30T04:28:13.426Z,2.47
2018-06-30T04:30:42.982Z,2.53
2018-06-30T04:33:10.443Z,3.10
2018-06-30T04:35:38.326Z,2.30
2018-06-30T04:38:06.318Z,2.50
2018-06-30T04:40:37.266Z,2.53
2018-06-30T04:43:10.282Z,1.97
2018-06-30T04:45:37.206Z,2.20
2018-06-30T04:48:04.163Z,2.73
2018-06-30T04:50:44.481Z,2.40
2018-06-30T04:53:15.520Z,2.30
2018-06-30T04:55:42.446Z,2.50
2018-06-30T04:58:22.002Z,2.17
2018-06-30T05:00:49.482Z,2.40
2018-06-30T05:03:20.410Z,2.60
2018-06-30T05:05:48.991Z,2.10
2018-06-30T05:08:16.495Z,2.30
2018-06-30T05:10:46.422Z,2.30
2018-06-30T05:13:13.375Z,2.73
2018-06-30T05:15:40.941Z,2.97
2018-06-30T05:18:08.502Z,2.37
2018-06-30T05:20:36.017Z,2.70
2018-06-30T05:23:02.974Z,2.50
2018-06-30T05:25:33.066Z,2.60
2018-06-30T05:28:01.059Z,2.97
2018-06-30T05:30:32.098Z,2.77
2018-06-30T05:33:04.559Z,2.80
2018-06-30T05:35:37.804Z,2.50
2018-06-30T05:38:04.793Z,2.95
2018-06-30T05:40:31.691Z,2.90
2018-06-30T05:42:59.526Z,2.70
2018-06-30T05:45:26.402Z,2.27
2018-06-30T05:48:00.892Z,2.75
2018-06-30T05:50:29.799Z,3.00
2018-06-30T05:52:58.799Z,2.30
2018-06-30T05:55:29.367Z,2.53
2018-06-30T05:57:57.013Z,2.57
2018-06-30T06:00:23.942Z,2.83
2018-06-30T06:02:50.925Z,2.70
2018-06-30T06:05:18.494Z,2.40
2018-06-30T06:07:46.069Z,3.20
2018-06-30T06:10:14.600Z,2.90
2018-06-30T06:12:43.614Z,3.37
2018-06-30T06:15:10.575Z,3.00
2018-06-30T06:17:38.570Z,2.53
2018-06-30T06:20:11.564Z,2.87
2018-06-30T06:22:39.975Z,3.03
2018-06-30T06:25:08.555Z,3.13
2018-06-30T06:27:41.530Z,2.50
2018-06-30T06:30:10.143Z,2.23
2018-06-30T06:32:45.795Z,3.07
2018-06-30T06:35:19.534Z,2.60
2018-06-30T06:37:48.090Z,2.77
2018-06-30T06:40:16.034Z,2.90
2018-06-30T06:42:45.550Z,3.40
2018-06-30T06:45:14.026Z,2.83
2018-06-30T06:47:43.987Z,2.63
2018-06-30T06:50:13.898Z,3.20
2018-06-30T06:52:42.499Z,2.47
2018-06-30T06:55:15.575Z,2.90
2018-06-30T06:57:48.494Z,3.53
2018-06-30T07:00:18.127Z,2.40
2018-06-30T07:02:49.597Z,2.53
2018-06-30T07:05:19.518Z,2.70
2018-06-30T07:07:49.538Z,2.37
2018-06-30T07:10:23.667Z,3.47
2018-06-30T07:12:54.851Z,2.70
2018-06-30T07:15:29.864Z,2.70
2018-06-30T07:17:59.793Z,2.77
2018-06-30T07:20:27.580Z,2.90
2018-06-30T07:22:59.486Z,2.93
2018-06-30T07:25:26.434Z,2.53
2018-06-30T07:27:58.058Z,2.80
2018-06-30T07:30:27.981Z,2.93
2018-06-30T07:32:59.569Z,2.27
2018-06-30T07:35:29.495Z,2.70
2018-06-30T07:38:02.142Z,2.93
2018-06-30T07:40:32.003Z,2.50
2018-06-30T07:42:59.578Z,2.70
2018-06-30T07:45:28.598Z,2.37
2018-06-30T07:47:57.090Z,2.70
2018-06-30T07:50:31.269Z,2.60
2018-06-30T07:53:11.178Z,3.20
2018-06-30T07:55:42.424Z,12.03
2018-06-30T07:58:13.229Z,5.37
2018-06-30T08:00:42.079Z,3.90
2018-06-30T08:03:09.138Z,2.93
2018-06-30T08:05:39.078Z,2.90
2018-06-30T08:08:06.634Z,2.83
2018-06-30T08:10:36.555Z,3.20
2018-06-30T08:13:03.494Z,2.87
2018-06-30T08:15:30.459Z,3.00
2018-06-30T08:17:58.162Z,2.70
2018-06-30T08:20:25.110Z,2.87
2018-06-30T08:22:57.093Z,2.10
2018-06-30T08:25:28.263Z,2.50
2018-06-30T08:28:03.359Z,2.83
2018-06-30T08:30:31.066Z,3.20
2018-06-30T08:33:02.039Z,3.50
2018-06-30T08:35:30.634Z,3.30
2018-06-30T08:38:00.554Z,3.07
2018-06-30T08:40:28.155Z,3.33
2018-06-30T08:42:55.073Z,2.67
2018-06-30T08:45:22.023Z,3.30
2018-06-30T08:47:48.998Z,3.23
2018-06-30T08:50:15.925Z,3.37
2018-06-30T08:52:44.629Z,3.30
2018-06-30T08:55:14.207Z,3.53
2018-06-30T08:57:41.642Z,2.97
2018-06-30T09:00:09.610Z,3.50
2018-06-30T09:02:39.414Z,2.70
2018-06-30T09:05:09.227Z,3.73
2018-06-30T09:07:38.889Z,2.87
2018-06-30T09:10:09.151Z,2.93
2018-06-30T09:12:37.606Z,3.43
2018-06-30T09:15:05.547Z,3.73
2018-06-30T09:17:33.523Z,2.97
2018-06-30T09:20:01.154Z,3.80
2018-06-30T09:22:29.669Z,3.40
2018-06-30T09:24:56.610Z,3.00
2018-06-30T09:27:24.170Z,3.47
2018-06-30T09:29:51.235Z,3.10
2018-06-30T09:32:20.127Z,3.53
2018-06-30T09:34:47.726Z,2.90
2018-06-30T09:37:19.728Z,3.20
2018-06-30T09:39:47.693Z,3.03
2018-06-30T09:42:14.606Z,3.03
2018-06-30T09:44:42.184Z,3.00
2018-06-30T09:47:09.658Z,3.10
2018-06-30T09:49:39.151Z,2.87
2018-06-30T09:52:09.142Z,3.13
2018-06-30T09:54:36.111Z,2.93
2018-06-30T09:57:03.066Z,3.23
2018-06-30T09:59:29.954Z,3.43
2018-06-30T10:01:56.946Z,3.10
2018-06-30T10:04:23.882Z,3.50
2018-06-30T10:06:51.728Z,3.80
2018-06-30T10:09:18.590Z,3.10
2018-06-30T10:11:50.125Z,3.30
2018-06-30T10:14:17.002Z,2.67
2018-06-30T10:16:50.154Z,2.90
2018-06-30T10:19:17.308Z,3.07
2018-06-30T10:21:44.027Z,3.30
2018-06-30T10:24:10.881Z,3.20
2018-06-30T10:26:41.874Z,2.97
2018-06-30T10:29:09.655Z,2.90
2018-06-30T10:31:38.638Z,3.30
2018-06-30T10:34:07.091Z,2.90
2018-06-30T10:36:33.997Z,3.53
2018-06-30T10:39:00.962Z,3.10
2018-06-30T10:41:27.881Z,2.90
2018-06-30T10:43:55.686Z,2.83
2018-06-30T10:46:23.098Z,2.93
2018-06-30T10:48:53.054Z,2.57
2018-06-30T10:51:23.018Z,2.93
2018-06-30T10:53:49.979Z,2.40
2018-06-30T10:56:17.643Z,2.33
2018-06-30T10:58:45.157Z,2.43
2018-06-30T11:01:12.087Z,2.80
2018-06-30T11:03:39.670Z,3.10
2018-06-30T11:06:07.203Z,2.50
2018-06-30T11:08:34.092Z,2.40
2018-06-30T11:11:01.149Z,2.23
2018-06-30T11:13:28.745Z,2.30
2018-06-30T11:15:55.666Z,2.60
2018-06-30T11:18:23.115Z,2.47
2018-06-30T11:20:50.706Z,2.40
2018-06-30T11:23:17.666Z,2.70
2018-06-30T11:25:45.702Z,2.70
2018-06-30T11:28:13.218Z,2.87
2018-06-30T11:30:43.110Z,2.90
2018-06-30T11:33:14.094Z,3.20
2018-06-30T11:35:43.995Z,2.80
2018-06-30T11:38:12.716Z,2.83
2018-06-30T11:40:40.198Z,2.87
2018-06-30T11:43:07.149Z,2.90
2018-06-30T11:45:34.109Z,2.73
2018-06-30T11:48:03.431Z,2.97
2018-06-30T11:50:32.195Z,2.67
2018-06-30T11:52:59.693Z,2.80
2018-06-30T11:55:28.130Z,3.07
2018-06-30T11:57:55.816Z,3.00
2018-06-30T12:00:24.176Z,2.30
2018-06-30T12:02:51.733Z,2.97
2018-06-30T12:05:18.743Z,2.37
2018-06-30T12:07:45.738Z,3.03
2018-06-30T12:10:12.731Z,2.87
2018-06-30T12:12:39.683Z,3.00
2018-06-30T12:15:06.667Z,3.10
2018-06-30T12:17:34.640Z,2.87
2018-06-30T12:20:04.768Z,3.13
2018-06-30T12:22:31.766Z,2.60
2018-06-30T12:24:59.344Z,2.60
2018-06-30T12:27:26.366Z,2.77
2018-06-30T12:29:53.239Z,2.63
2018-06-30T12:32:20.294Z,3.37
2018-06-30T12:34:47.153Z,3.20
2018-06-30T12:37:14.177Z,2.83
2018-06-30T12:39:41.070Z,2.50
2018-06-30T12:42:08.067Z,3.30
2018-06-30T12:44:35.694Z,2.80
2018-06-30T12:47:02.690Z,2.93
2018-06-30T12:49:29.609Z,2.90
2018-06-30T12:51:56.574Z,2.87
2018-06-30T12:54:23.610Z,2.70
2018-06-30T12:56:50.374Z,2.40
2018-06-30T12:59:17.230Z,2.53
2018-06-30T13:01:44.092Z,2.37
2018-06-30T13:04:11.926Z,2.20
2018-06-30T13:06:38.781Z,2.00
2018-06-30T13:09:07.768Z,2.60
2018-06-30T13:11:34.702Z,2.60
2018-06-30T13:14:01.650Z,2.40
2018-06-30T13:16:28.603Z,3.00
2018-06-30T13:18:55.551Z,2.70
2018-06-30T13:21:22.413Z,2.40
2018-06-30T13:23:49.359Z,2.20
2018-06-30T13:26:16.262Z,2.00
2018-06-30T13:28:43.270Z,2.50
2018-06-30T13:31:10.166Z,2.77
2018-06-30T13:33:43.073Z,2.60
2018-06-30T13:36:10.016Z,2.60
2018-06-30T13:38:40.983Z,3.00
2018-06-30T13:41:08.766Z,3.00
2018-06-30T13:43:35.752Z,2.43
2018-06-30T13:46:02.704Z,2.80
2018-06-30T13:48:29.650Z,2.67
2018-06-30T13:50:56.590Z,2.57
2018-06-30T13:53:24.425Z,2.43
2018-06-30T13:55:54.451Z,2.80
2018-06-30T13:58:23.323Z,2.40
2018-06-30T14:00:50.838Z,3.00
2018-06-30T14:03:17.738Z,2.50
2018-06-30T14:05:44.830Z,2.80
2018-06-30T14:08:12.390Z,2.80
2018-06-30T14:10:39.330Z,2.93
2018-06-30T14:13:06.294Z,2.90
2018-06-30T14:15:34.263Z,2.50
2018-06-30T14:18:05.118Z,2.70
2018-06-30T14:20:32.061Z,3.00
2018-06-30T14:22:59.843Z,3.00
2018-06-30T14:25:26.762Z,2.50
2018-06-30T14:27:54.361Z,2.53
2018-06-30T14:30:21.342Z,2.20
2018-06-30T14:32:48.283Z,2.70
2018-06-30T14:35:19.141Z,2.43
2018-06-30T14:37:46.869Z,2.90
2018-06-30T14:40:15.270Z,2.70
2018-06-30T14:42:47.478Z,3.20
2018-06-30T14:45:18.327Z,2.53
2018-06-30T14:47:45.802Z,2.40
2018-06-30T14:50:12.771Z,2.30
2018-06-30T14:52:39.630Z,2.90
2018-06-30T14:55:15.023Z,2.70
2018-06-30T14:57:45.009Z,2.80
2018-06-30T15:00:13.049Z,2.73
2018-06-30T15:02:42.973Z,2.87
2018-06-30T15:05:11.079Z,3.00
2018-06-30T15:07:38.086Z,3.20
2018-06-30T15:10:05.537Z,2.57
2018-06-30T15:12:32.484Z,3.50
2018-06-30T15:14:59.402Z,2.70
2018-06-30T15:17:27.930Z,2.77
2018-06-30T15:19:55.806Z,3.20
2018-06-30T15:22:22.754Z,3.10
2018-06-30T15:24:49.670Z,3.03
2018-06-30T15:27:16.607Z,3.57
2018-06-30T15:29:46.462Z,2.80
2018-06-30T15:32:15.418Z,3.47
2018-06-30T15:34:43.439Z,3.33
2018-06-30T15:37:10.376Z,3.03
2018-06-30T15:39:37.306Z,3.33
2018-06-30T15:42:04.429Z,3.57
2018-06-30T15:44:31.425Z,2.87
2018-06-30T15:46:58.382Z,3.10
2018-06-30T15:49:25.822Z,2.87
2018-06-30T15:51:52.702Z,3.10
2018-06-30T15:54:21.394Z,3.20
2018-06-30T15:56:48.363Z,3.00
2018-06-30T15:59:15.332Z,2.73
2018-06-30T16:01:42.284Z,2.70
2018-06-30T16:04:09.234Z,3.47
2018-06-30T16:06:36.194Z,3.40
2018-06-30T16:09:06.658Z,3.30
2018-06-30T16:11:33.570Z,3.60
2018-06-30T16:14:01.354Z,3.53
2018-06-30T16:16:28.420Z,3.80
2018-06-30T16:18:55.226Z,3.50
2018-06-30T16:21:22.822Z,3.93
2018-06-30T16:23:49.794Z,3.90
2018-06-30T16:26:18.386Z,3.33
2018-06-30T16:28:45.375Z,3.90
2018-06-30T16:31:13.294Z,3.73
2018-06-30T16:33:40.194Z,3.50
2018-06-30T16:36:08.163Z,3.70
2018-06-30T16:38:35.135Z,3.87
2018-06-30T16:41:02.073Z,3.33
2018-06-30T16:43:31.018Z,3.70
2018-06-30T16:45:57.950Z,3.90
2018-06-30T16:48:24.884Z,3.90
2018-06-30T16:50:51.842Z,3.80
2018-06-30T16:53:18.898Z,3.90
2018-06-30T16:55:47.050Z,3.60
2018-06-30T16:58:14.888Z,3.77
2018-06-30T17:00:41.848Z,3.93
2018-06-30T17:03:08.810Z,3.80
2018-06-30T17:05:35.978Z,3.33
2018-06-30T17:08:02.897Z,3.43
2018-06-30T17:10:30.421Z,3.77
2018-06-30T17:12:58.027Z,4.00
2018-06-30T17:15:26.902Z,3.17
2018-06-30T17:17:54.060Z,3.27
2018-06-30T17:20:20.970Z,3.70
2018-06-30T17:22:50.517Z,3.70
2018-06-30T17:25:21.880Z,3.50
2018-06-30T17:27:52.828Z,3.20
2018-06-30T17:30:26.214Z,2.93
2018-06-30T17:32:53.209Z,3.20
2018-06-30T17:35:21.938Z,3.40
2018-06-30T17:37:49.455Z,4.37
2018-06-30T17:40:16.410Z,3.40
2018-06-30T17:42:43.943Z,3.40
2018-06-30T17:45:10.935Z,3.07
2018-06-30T17:47:38.458Z,3.30
2018-06-30T17:50:06.947Z,3.30
2018-06-30T17:52:34.862Z,3.30
2018-06-30T17:55:11.415Z,3.30
2018-06-30T17:57:41.362Z,3.60
2018-06-30T18:00:08.986Z,3.97
2018-06-30T18:02:41.039Z,3.60
2018-06-30T18:05:10.041Z,3.30
2018-06-30T18:07:42.020Z,3.50
2018-06-30T18:10:10.562Z,3.67
2018-06-30T18:12:41.475Z,3.90
2018-06-30T18:15:16.637Z,3.70
2018-06-30T18:17:57.464Z,3.07
2018-06-30T18:20:40.385Z,3.40
2018-06-30T18:23:17.899Z,3.50
2018-06-30T18:25:52.175Z,3.50
2018-06-30T18:28:19.098Z,3.20
2018-06-30T18:30:51.112Z,3.80
2018-06-30T18:33:24.317Z,3.00
2018-06-30T18:35:57.558Z,3.57
2018-06-30T18:38:38.646Z,3.27
2018-06-30T18:41:05.546Z,3.23
2018-06-30T18:43:39.086Z,4.10
2018-06-30T18:46:18.623Z,3.20
2018-06-30T18:48:51.223Z,3.23
2018-06-30T18:51:20.253Z,3.13
2018-06-30T18:53:50.242Z,3.10
2018-06-30T18:56:20.185Z,3.37
2018-06-30T18:58:47.992Z,3.33
2018-06-30T19:01:26.522Z,3.03
2018-06-30T19:03:59.620Z,3.33
2018-06-30T19:06:37.142Z,2.87
2018-06-30T19:09:10.689Z,2.80
2018-06-30T19:11:41.554Z,2.50
2018-06-30T19:14:10.562Z,2.47
2018-06-30T19:16:46.643Z,1.90
2018-06-30T19:19:21.974Z,2.30
2018-06-30T19:21:49.458Z,1.80
2018-06-30T19:24:19.386Z,2.07
2018-06-30T19:26:46.380Z,1.63
2018-06-30T19:29:14.015Z,1.43
2018-06-30T19:31:42.002Z,2.20
2018-06-30T19:34:13.763Z,1.50
2018-06-30T19:36:40.753Z,1.70
2018-06-30T19:39:09.100Z,1.10
2018-06-30T19:41:36.090Z,1.50
2018-06-30T19:44:03.070Z,1.37
2018-06-30T19:46:30.486Z,1.27
2018-06-30T19:49:00.433Z,1.20
2018-06-30T19:51:27.373Z,1.33
2018-06-30T19:53:55.360Z,1.10
2018-06-30T19:56:22.353Z,1.00
2018-06-30T19:58:49.249Z,1.50
2018-06-30T20:01:16.478Z,1.10
2018-06-30T20:03:43.441Z,1.00
2018-06-30T20:06:10.311Z,1.10
2018-06-30T20:08:37.202Z,1.10
2018-06-30T20:11:04.203Z,1.17
2018-06-30T20:13:31.109Z,1.10
2018-06-30T20:16:01.451Z,0.80
2018-06-30T20:18:29.279Z,1.10
2018-06-30T20:20:57.030Z,0.80
2018-06-30T20:23:23.958Z,1.00
2018-06-30T20:25:51.933Z,0.93
2018-06-30T20:28:18.863Z,0.80
2018-06-30T20:30:45.779Z,0.90
2018-06-30T20:33:13.737Z,0.80
2018-06-30T20:35:40.734Z,1.00
2018-06-30T20:38:07.654Z,0.70
2018-06-30T20:40:34.618Z,0.80
2018-06-30T20:43:01.468Z,0.80
2018-06-30T20:45:28.425Z,0.90
2018-06-30T20:47:55.379Z,0.80
2018-06-30T20:50:22.342Z,0.90
2018-06-30T20:52:49.308Z,0.80
2018-06-30T20:55:17.071Z,0.87
2018-06-30T20:57:45.059Z,1.07
2018-06-30T21:00:12.519Z,0.80
2018-06-30T21:02:39.487Z,0.90
2018-06-30T21:05:06.442Z,0.70
2018-06-30T21:07:33.384Z,0.90
2018-06-30T21:10:00.362Z,0.90
2018-06-30T21:12:33.546Z,0.70
2018-06-30T21:15:00.390Z,0.70
2018-06-30T21:17:27.368Z,0.63
2018-06-30T21:19:54.343Z,0.70
2018-06-30T21:22:21.280Z,0.90
2018-06-30T21:24:48.426Z,0.80
2018-06-30T21:27:17.047Z,0.80
2018-06-30T21:29:44.022Z,0.90
2018-06-30T21:32:11.582Z,0.80
2018-06-30T21:34:41.494Z,0.77
2018-06-30T21:37:08.444Z,0.70
2018-06-30T21:39:38.371Z,0.70
2018-06-30T21:42:15.334Z,0.80
2018-06-30T21:44:45.270Z,0.90
2018-06-30T21:47:12.202Z,0.73
2018-06-30T21:49:39.166Z,0.90
2018-06-30T21:52:15.542Z,0.70
2018-06-30T21:54:42.422Z,0.90
2018-06-30T21:57:09.312Z,0.90
2018-06-30T21:59:44.354Z,0.70
2018-06-30T22:02:12.351Z,0.70
2018-06-30T22:04:45.409Z,0.80
2018-06-30T22:07:13.642Z,0.70
2018-06-30T22:09:43.534Z,0.60
2018-06-30T22:12:13.474Z,0.80
2018-06-30T22:14:41.378Z,0.77
2018-06-30T22:17:08.335Z,0.70
2018-06-30T22:19:35.274Z,0.70
2018-06-30T22:22:05.967Z,0.73
2018-06-30T22:24:33.913Z,0.70
2018-06-30T22:27:00.846Z,0.60
2018-06-30T22:29:32.028Z,0.70
2018-06-30T22:31:58.982Z,0.70
2018-06-30T22:34:25.931Z,1.03
2018-06-30T22:36:52.898Z,0.83
2018-06-30T22:39:32.526Z,0.90
2018-06-30T22:42:00.137Z,0.70
2018-06-30T22:44:27.032Z,0.70
2018-06-30T22:47:02.473Z,0.70
2018-06-30T22:49:30.071Z,0.77
2018-06-30T22:52:07.103Z,0.90
2018-06-30T22:54:34.642Z,0.70
2018-06-30T22:57:01.622Z,0.70
2018-06-30T22:59:28.551Z,0.80
2018-06-30T23:01:56.462Z,0.87
2018-06-30T23:04:23.426Z,0.70
2018-06-30T23:06:50.389Z,1.17
2018-06-30T23:09:25.006Z,0.80
2018-06-30T23:11:55.663Z,0.87
2018-06-30T23:14:23.116Z,1.37
2018-06-30T23:16:50.114Z,0.60
2018-06-30T23:19:17.038Z,0.70
2018-06-30T23:21:47.496Z,0.70
2018-06-30T23:24:20.891Z,0.70
2018-06-30T23:26:48.715Z,0.73
2018-06-30T23:29:15.637Z,0.90
2018-06-30T23:31:47.222Z,0.70
2018-06-30T23:34:16.215Z,0.60
2018-06-30T23:36:43.687Z,0.80
2018-06-30T23:39:27.742Z,0.70
2018-06-30T23:41:58.638Z,0.70
2018-06-30T23:44:26.484Z,1.27
2018-06-30T23:46:53.383Z,0.70
2018-06-30T23:49:26.618Z,0.70
2018-06-30T23:52:01.146Z,0.70
2018-06-30T23:54:32.102Z,0.70
2018-06-30T23:56:59.082Z,0.80
2018-06-30T23:59:29.001Z,0.80
